KMCE/MCE METAR and TAF weather

Enter ICAO airport designator
Station Type Date Time Source
KMCE METAR 2020/11/27 13:53 UTC NOAA

KMCE 271353Z AUTO 11003KT 10SM CLR M01/M02 A3023 RMK AO2 SLP239 T10111022


Station Type Date Time Source
KMCE Decoded METAR 2020/11/27 13:53 UTC NOAA

MERCED MUNICIPAL AIRPORT, CA, United States (KMCE) 37-17N 120-30W 47M
Nov 27, 2020 - 08:53 AM EST / 2020.11.27 1353 UTC
Wind: from the ESE (110 degrees) at 3 MPH (3 KT):0
Visibility: 10 mile(s):0
Sky conditions: clear
Temperature: 30.0 F (-1.1 C)
Dew Point: 28.0 F (-2.2 C)
Relative Humidity: 92%
Pressure (altimeter): 30.23 in. Hg (1023 hPa)
ob: KMCE 271353Z AUTO 11003KT 10SM CLR M01/M02 A3023 RMK AO2 SLP239 T10111022
cycle: 14

Station Type Date Time Source
KMCE TAF 2020/11/27 12:22 UTC NOAA

TAF KMCE 271120Z 2712/2812 VRB03KT P6SM SKC

Example: see airport list